createdAt,value
2018-06-03T00:00:09.831Z,3.52
2018-06-03T00:06:04.851Z,3.3
2018-06-03T00:11:59.886Z,2.95
2018-06-03T00:17:54.845Z,2.96
2018-06-03T00:23:49.862Z,4
2018-06-03T00:29:44.862Z,4.3
2018-06-03T00:35:39.831Z,4.5
2018-06-03T00:41:34.864Z,4.11
2018-06-03T00:47:29.932Z,4.03
2018-06-03T00:53:24.874Z,3.94
2018-06-03T00:59:19.865Z,4.36
2018-06-03T01:05:14.876Z,4.73
2018-06-03T01:11:09.861Z,4.43
2018-06-03T01:17:04.893Z,5.24
2018-06-03T01:22:59.880Z,4.37
2018-06-03T01:28:54.875Z,3.4
2018-06-03T01:34:49.894Z,2.82
2018-06-03T01:40:44.943Z,3.09
2018-06-03T01:46:39.913Z,2.92
2018-06-03T01:52:34.892Z,2.69
2018-06-03T01:58:29.878Z,3.54
2018-06-03T02:04:24.921Z,3.27
2018-06-03T02:10:19.908Z,3.28
2018-06-03T02:16:14.946Z,4.42
2018-06-03T02:22:09.933Z,3.64
2018-06-03T02:28:04.961Z,3.63
2018-06-03T02:33:59.971Z,3.51
2018-06-03T02:39:54.939Z,3.48
2018-06-03T02:45:49.944Z,3.77
2018-06-03T02:51:44.990Z,3.94
2018-06-03T02:57:39.927Z,3.28
2018-06-03T03:03:34.993Z,3.94
2018-06-03T03:09:29.988Z,3.77
2018-06-03T03:15:24.996Z,3.87
2018-06-03T03:21:19.946Z,3.63
2018-06-03T03:27:14.979Z,4.03
2018-06-03T03:33:09.970Z,3.4
2018-06-03T03:39:04.953Z,4.02
2018-06-03T03:45:00.042Z,4.21
2018-06-03T03:50:55.030Z,3.93
2018-06-03T03:56:49.987Z,4.13
2018-06-03T04:02:45.019Z,4.25
2018-06-03T04:08:39.968Z,4.36
2018-06-03T04:14:34.960Z,4.63
2018-06-03T04:20:29.987Z,5.01
2018-06-03T04:26:24.967Z,4.75
2018-06-03T04:32:19.968Z,4.42
2018-06-03T04:38:14.973Z,3.87
2018-06-03T04:44:10.001Z,4.07
2018-06-03T04:50:05.013Z,4.06
2018-06-03T04:56:00.047Z,3.72
2018-06-03T05:01:55.020Z,3.7
2018-06-03T05:07:49.992Z,3.7
2018-06-03T05:13:45.050Z,4.64
2018-06-03T05:19:40.043Z,5.91
2018-06-03T05:25:35.010Z,6.33
2018-06-03T05:31:30.041Z,6.54
2018-06-03T05:37:25.060Z,4.42
2018-06-03T05:43:20.073Z,5.31
2018-06-03T05:49:15.033Z,6.78
2018-06-03T05:55:10.005Z,5.66
2018-06-03T06:01:05.054Z,4.79
2018-06-03T06:07:00.069Z,4.32
2018-06-03T06:12:55.030Z,3.86
2018-06-03T06:18:50.081Z,4.01
2018-06-03T06:24:45.020Z,4.44
2018-06-03T06:30:40.060Z,5.61
2018-06-03T06:36:35.055Z,5.61
2018-06-03T06:42:30.081Z,7.06
2018-06-03T06:48:25.044Z,5.97
2018-06-03T06:54:20.123Z,6.78
2018-06-03T07:00:15.114Z,6.48
2018-06-03T07:06:10.108Z,6.59
2018-06-03T07:12:05.075Z,6.63
2018-06-03T07:18:00.097Z,7.18
2018-06-03T07:23:55.097Z,5.55
2018-06-03T07:29:50.081Z,5.7
2018-06-03T07:35:45.124Z,5.81
2018-06-03T07:41:40.126Z,5.1
2018-06-03T07:47:35.101Z,5.64
2018-06-03T07:53:30.116Z,5.86
2018-06-03T07:59:25.107Z,5.93
2018-06-03T08:05:20.140Z,6.35
2018-06-03T08:11:15.114Z,5.71
2018-06-03T08:17:10.136Z,5.23
2018-06-03T08:23:05.136Z,6.18
2018-06-03T08:29:00.142Z,5.03
2018-06-03T08:34:55.130Z,4.86
2018-06-03T08:40:50.117Z,4.94
2018-06-03T08:46:45.134Z,5.66
2018-06-03T08:52:40.145Z,5.68
2018-06-03T08:58:35.175Z,4.83
2018-06-03T09:04:30.157Z,4.68
2018-06-03T09:10:25.163Z,4.65
2018-06-03T09:16:20.134Z,5.02
2018-06-03T09:22:15.138Z,5.77
2018-06-03T09:28:10.166Z,4.44
2018-06-03T09:34:05.167Z,4.75
2018-06-03T09:40:00.203Z,4.47
2018-06-03T09:45:55.196Z,4.32
2018-06-03T09:51:50.191Z,4.18
2018-06-03T09:57:45.171Z,4.45
2018-06-03T10:03:40.179Z,4.58
2018-06-03T10:09:35.157Z,3.93
2018-06-03T10:15:30.173Z,4.12
2018-06-03T10:21:25.192Z,3.56
2018-06-03T10:27:20.247Z,5.24
2018-06-03T10:33:15.187Z,4.96
2018-06-03T10:39:10.242Z,4.33
2018-06-03T10:45:05.203Z,2.72
2018-06-03T10:51:00.204Z,4.21
2018-06-03T10:56:55.206Z,3.78
2018-06-03T11:02:50.239Z,3.36
2018-06-03T11:08:45.202Z,2.53
2018-06-03T11:14:40.240Z,2.6
2018-06-03T11:20:35.253Z,2.76
2018-06-03T11:26:30.198Z,1.87
2018-06-03T11:32:25.232Z,1.57
2018-06-03T11:38:20.266Z,3.15
2018-06-03T11:44:15.276Z,2.67
2018-06-03T11:50:10.259Z,1.45
2018-06-03T11:56:05.275Z,1.25
2018-06-03T12:02:00.291Z,2.13
2018-06-03T12:07:55.254Z,1.23
2018-06-03T12:13:50.254Z,2.03
2018-06-03T12:19:45.234Z,1.46
2018-06-03T12:25:40.278Z,1.44
2018-06-03T12:31:35.271Z,1.97
2018-06-03T12:37:30.314Z,2.66
2018-06-03T12:43:25.297Z,1.74
2018-06-03T12:49:20.274Z,2.16
2018-06-03T12:55:15.295Z,1.68
2018-06-03T13:01:10.297Z,2.27
2018-06-03T13:07:05.304Z,1.83
2018-06-03T13:13:00.305Z,2.49
2018-06-03T13:18:55.325Z,2.55
2018-06-03T13:24:50.300Z,1.76
2018-06-03T13:30:45.324Z,1.81
2018-06-03T13:36:40.269Z,2.33
2018-06-03T13:42:35.400Z,2.24
2018-06-03T13:48:30.299Z,2.32
2018-06-03T13:54:25.311Z,1.98
2018-06-03T14:00:20.331Z,2.22
2018-06-03T14:06:15.361Z,2.14
2018-06-03T14:12:10.377Z,2.29
2018-06-03T14:18:05.349Z,2.16
2018-06-03T14:24:00.315Z,2.32
2018-06-03T14:29:55.352Z,2.38
2018-06-03T14:35:50.314Z,2.03
2018-06-03T14:41:45.333Z,2.04
2018-06-03T14:47:40.376Z,2.34
2018-06-03T14:53:35.326Z,1.9
2018-06-03T14:59:30.301Z,2.36
2018-06-03T15:05:25.284Z,2.05
2018-06-03T15:11:20.288Z,2.22
2018-06-03T15:17:15.276Z,2.21
2018-06-03T15:23:10.375Z,2.05
2018-06-03T15:29:05.358Z,2.74
2018-06-03T15:35:00.391Z,2.08
2018-06-03T15:40:55.385Z,2.2
2018-06-03T15:46:50.393Z,2.34
2018-06-03T15:52:45.369Z,2.2
2018-06-03T15:58:40.398Z,2.27
2018-06-03T16:04:35.396Z,1.79
2018-06-03T16:10:30.437Z,1.85
2018-06-03T16:16:25.411Z,2.28
2018-06-03T16:22:20.448Z,2.33
2018-06-03T16:28:15.511Z,1.97
2018-06-03T16:34:10.410Z,2.17
2018-06-03T16:40:05.688Z,2.42
2018-06-03T16:46:00.392Z,2.73
2018-06-03T16:51:55.421Z,2.13
2018-06-03T16:57:50.439Z,2.77
2018-06-03T17:03:45.452Z,2.56
2018-06-03T17:09:40.456Z,2.72
2018-06-03T17:15:35.438Z,2.91
2018-06-03T17:21:30.410Z,2.35
2018-06-03T17:27:25.507Z,2.94
2018-06-03T17:33:20.491Z,2.89
2018-06-03T17:39:15.428Z,2.56
2018-06-03T17:45:10.477Z,2.21
2018-06-03T17:51:05.443Z,2.17
2018-06-03T17:57:00.443Z,2.21
2018-06-03T18:02:55.462Z,2.2
2018-06-03T18:08:50.441Z,3.58
2018-06-03T18:14:45.453Z,4.17
2018-06-03T18:20:40.471Z,5.54
2018-06-03T18:26:35.491Z,4.18
2018-06-03T18:32:30.494Z,5.56
2018-06-03T18:38:25.543Z,4.46
2018-06-03T18:44:20.460Z,3.69
2018-06-03T18:50:15.481Z,4.39
2018-06-03T18:56:10.519Z,4.22
2018-06-03T19:02:05.458Z,4.41
2018-06-03T19:08:00.510Z,4.23
2018-06-03T19:13:55.544Z,3.42
2018-06-03T19:19:50.557Z,3.39
2018-06-03T19:25:45.524Z,3.95
2018-06-03T19:31:40.536Z,4.15
2018-06-03T19:37:35.524Z,3.9
2018-06-03T19:43:30.507Z,3.39
2018-06-03T19:49:25.557Z,3.23
2018-06-03T19:55:20.506Z,3.97
2018-06-03T20:01:15.520Z,3.22
2018-06-03T20:07:10.501Z,3.33
2018-06-03T20:13:05.530Z,3.28
2018-06-03T20:19:00.514Z,3.77
2018-06-03T20:24:55.506Z,3.71
2018-06-03T20:30:50.550Z,3.4
2018-06-03T20:36:45.522Z,3.44
2018-06-03T20:42:40.588Z,3.62
2018-06-03T20:48:35.512Z,3.33
2018-06-03T20:54:30.540Z,3.3
2018-06-03T21:00:25.593Z,3.27
2018-06-03T21:06:20.565Z,2.97
2018-06-03T21:12:15.581Z,3.18
2018-06-03T21:18:10.547Z,3.37
2018-06-03T21:24:05.573Z,2.93
2018-06-03T21:30:00.570Z,3.87
2018-06-03T21:35:55.586Z,3.66
2018-06-03T21:41:50.595Z,3.52
2018-06-03T21:47:45.567Z,3.14
2018-06-03T21:53:40.580Z,3.02
2018-06-03T21:59:35.603Z,3.48
2018-06-03T22:05:30.600Z,3.46
2018-06-03T22:11:25.566Z,3.72
2018-06-03T22:17:20.604Z,4
2018-06-03T22:23:15.620Z,3.94
2018-06-03T22:29:10.569Z,3.76
2018-06-03T22:35:05.587Z,3.48
2018-06-03T22:41:00.629Z,3.82
2018-06-03T22:46:55.622Z,3.57
2018-06-03T22:52:50.620Z,3.57
2018-06-03T22:58:45.612Z,3.47
2018-06-03T23:04:40.641Z,4.25
2018-06-03T23:10:35.718Z,3.63
2018-06-03T23:16:30.645Z,4.65
2018-06-03T23:22:25.688Z,5.17
2018-06-03T23:28:20.712Z,4.33
2018-06-03T23:34:15.605Z,4.19
2018-06-03T23:40:10.613Z,3.99
2018-06-03T23:46:05.681Z,3.42
2018-06-03T23:52:00.676Z,3.63
2018-06-03T23:57:55.632Z,3.16
